Time;durP1;ratioP1;P1;durP2;ratioP2;P2;SDS_P1;SDS_P2;PMS_P1;PMS_P2;Temp;Humidity;BMP_temperature;BMP_pressure;BME280_temperature;BME280_humidity;BME280_pressure;Samples;Min_cycle;Max_cycle;Signal;HPM_P1;HPM_P2
2021/06/09 00:00:27;;;;;;;12.05;10.05;;;;;;;;;;6272138;28;20053;-81
2021/06/09 00:03:29;;;;;;;11.18;9.38;;;;;;;;;;6254398;28;20045;-80
2021/06/09 00:06:31;;;;;;;11.40;8.83;;;;;;;;;;6249135;28;20116;-80
2021/06/09 00:09:33;;;;;;;11.82;9.70;;;;;;;;;;6270502;28;20143;-80
2021/06/09 00:12:35;;;;;;;12.75;9.45;;;;;;;;;;6262006;28;20045;-79
2021/06/09 00:15:36;;;;;;;14.15;9.52;;;;;;;;;;6230349;28;20049;-80
2021/06/09 00:18:39;;;;;;;11.38;9.75;;;;;;;;;;6250362;28;20544;-80
2021/06/09 00:21:46;;;;;;;12.63;10.47;;;;;;;;;;6256064;28;20132;-80
2021/06/09 00:24:48;;;;;;;13.60;9.82;;;;;;;;;;6252782;28;20049;-79
2021/06/09 00:27:55;;;;;;;13.52;10.65;;;;;;;;;;6273203;28;20059;-79
2021/06/09 00:30:57;;;;;;;13.10;10.25;;;;;;;;;;6271728;28;20118;-80
2021/06/09 00:33:59;;;;;;;13.18;9.93;;;;;;;;;;6272189;28;21307;-81
2021/06/09 00:37:01;;;;;;;12.93;10.60;;;;;;;;;;6271900;28;20530;-80
2021/06/09 00:40:06;;;;;;;14.90;11.32;;;;;;;;;;6259828;28;20490;-79
2021/06/09 00:43:15;;;;;;;14.60;9.90;;;;;;;;;;6246700;28;20040;-80
2021/06/09 00:46:16;;;;;;;13.65;10.20;;;;;;;;;;6249310;28;20049;-80
2021/06/09 00:49:18;;;;;;;12.05;10.25;;;;;;;;;;6254374;28;20077;-79
2021/06/09 00:52:26;;;;;;;13.75;10.93;;;;;;;;;;6223670;28;20507;-79
2021/06/09 00:55:28;;;;;;;12.70;10.48;;;;;;;;;;6250930;28;20075;-81
2021/06/09 00:58:29;;;;;;;15.63;11.55;;;;;;;;;;6273079;28;20040;-80
2021/06/09 01:01:32;;;;;;;16.20;11.18;;;;;;;;;;6270639;28;20040;-79
2021/06/09 01:04:34;;;;;;;15.25;11.07;;;;;;;;;;6256836;28;20514;-80
2021/06/09 01:07:37;;;;;;;14.98;10.82;;;;;;;;;;6245491;28;20052;-80
2021/06/09 01:10:39;;;;;;;;;;;;;;;;;;6246099;28;20465;-81
2021/06/09 01:13:41;;;;;;;14.50;10.65;;;;;;;;;;6246949;28;19921;-80
2021/06/09 01:16:42;;;;;;;14.73;10.90;;;;;;;;;;6248200;28;20048;-81
2021/06/09 01:19:44;;;;;;;13.15;11.10;;;;;;;;;;6244644;28;20431;-79
2021/06/09 01:22:46;;;;;;;13.57;11.23;;;;;;;;;;6247557;28;20567;-79
2021/06/09 01:25:48;;;;;;;13.77;10.50;;;;;;;;;;6244115;28;20167;-80
2021/06/09 01:28:55;;;;;;;13.80;11.45;;;;;;;;;;6246479;28;20519;-81
2021/06/09 01:31:57;;;;;;;15.00;11.93;;;;;;;;;;6245622;28;20152;-81
2021/06/09 01:35:00;;;;;;;17.42;11.90;;;;;;;;;;6269995;28;20060;-81
2021/06/09 01:38:02;;;;;;;14.30;11.45;;;;;;;;;;6249769;28;20662;-80
2021/06/09 01:41:04;;;;;;;15.38;11.75;;;;;;;;;;6247330;28;20120;-81
2021/06/09 01:44:05;;;;;;;16.50;12.95;;;;;;;;;;6245686;28;20037;-81
2021/06/09 01:47:07;;;;;;;15.30;11.95;;;;;;;;;;6256455;28;20048;-81
2021/06/09 01:50:12;;;;;;;17.90;12.93;;;;;;;;;;6243853;28;20045;-79
2021/06/09 01:53:13;;;;;;;16.48;12.77;;;;;;;;;;6247076;28;20159;-79
2021/06/09 01:56:15;;;;;;;16.48;12.60;;;;;;;;;;6248855;28;20048;-81
2021/06/09 01:59:19;;;;;;;17.55;13.48;;;;;;;;;;6264019;28;20223;-81
2021/06/09 02:02:21;;;;;;;16.85;12.60;;;;;;;;;;6247101;28;20095;-79
2021/06/09 02:05:23;;;;;;;15.48;12.70;;;;;;;;;;6245734;28;20113;-81
2021/06/09 02:08:25;;;;;;;16.10;12.32;;;;;;;;;;6247127;28;20049;-81
2021/06/09 02:11:27;;;;;;;17.55;12.68;;;;;;;;;;6213477;28;20060;-81
2021/06/09 02:14:28;;;;;;;16.67;12.45;;;;;;;;;;6247207;28;20053;-80
2021/06/09 02:17:31;;;;;;;18.52;13.13;;;;;;;;;;6248966;28;20125;-81
2021/06/09 02:20:32;;;;;;;17.83;13.32;;;;;;;;;;6259559;28;20658;-80
2021/06/09 02:23:37;;;;;;;15.65;12.30;;;;;;;;;;6272315;28;20101;-81
2021/06/09 02:26:41;;;;;;;19.08;12.77;;;;;;;;;;6249383;28;20052;-81
2021/06/09 02:29:43;;;;;;;17.83;12.90;;;;;;;;;;6230272;28;20124;-79
2021/06/09 02:32:45;;;;;;;16.30;12.85;;;;;;;;;;6250860;28;20526;-80
2021/06/09 02:35:49;;;;;;;16.73;12.45;;;;;;;;;;6252535;28;20037;-81
2021/06/09 02:38:51;;;;;;;16.65;12.65;;;;;;;;;;6251659;28;20101;-80
2021/06/09 02:41:53;;;;;;;19.10;14.00;;;;;;;;;;6276188;28;20051;-81
2021/06/09 02:44:54;;;;;;;20.38;13.60;;;;;;;;;;6277439;28;20051;-82
2021/06/09 02:48:00;;;;;;;21.02;13.50;;;;;;;;;;6267338;28;20061;-82
2021/06/09 02:51:02;;;;;;;18.42;12.45;;;;;;;;;;6251244;28;20096;-82
2021/06/09 02:54:12;;;;;;;20.17;14.00;;;;;;;;;;6251053;28;20065;-81
2021/06/09 02:57:51;;;;;;;19.45;13.82;;;;;;;;;;6268099;28;20033;-81
2021/06/09 03:01:21;;;;;;;19.13;13.95;;;;;;;;;;6250153;28;20450;-81
2021/06/09 03:04:40;;;;;;;19.95;14.38;;;;;;;;;;6248238;28;20426;-82
2021/06/09 03:07:53;;;;;;;22.20;15.68;;;;;;;;;;6265012;28;20069;-81
2021/06/09 03:11:03;;;;;;;24.23;16.15;;;;;;;;;;6248506;28;20132;-82
2021/06/09 03:15:10;;;;;;;21.17;14.98;;;;;;;;;;6225915;28;20066;-80
2021/06/09 03:17:53;;;;;;;21.80;14.45;;;;;;;;;;6254450;28;20055;-80
2021/06/09 03:21:04;;;;;;;21.73;15.68;;;;;;;;;;6257281;28;20182;-80
2021/06/09 03:24:20;;;;;;;21.23;14.60;;;;;;;;;;6273684;28;20087;-82
2021/06/09 03:27:33;;;;;;;22.27;14.93;;;;;;;;;;6250329;28;20049;-82
2021/06/09 03:30:38;;;;;;;21.42;15.23;;;;;;;;;;6252220;28;20059;-80
2021/06/09 03:33:43;;;;;;;20.23;14.98;;;;;;;;;;6256487;28;20109;-81
2021/06/09 03:36:48;;;;;;;21.60;14.30;;;;;;;;;;6259922;28;20087;-83
2021/06/09 03:39:57;;;;;;;20.10;13.95;;;;;;;;;;6241422;28;20045;-80
2021/06/09 03:43:02;;;;;;;21.63;14.38;;;;;;;;;;6259668;28;20134;-81
2021/06/09 03:46:07;;;;;;;21.98;14.88;;;;;;;;;;6262443;28;20053;-81
2021/06/09 03:49:12;;;;;;;20.88;14.57;;;;;;;;;;6261590;28;20132;-82
2021/06/09 03:52:15;;;;;;;22.10;14.98;;;;;;;;;;6255845;28;20072;-81
2021/06/09 03:55:25;;;;;;;22.45;15.25;;;;;;;;;;6258736;28;20049;-82
2021/06/09 03:58:27;;;;;;;22.27;15.50;;;;;;;;;;6257718;28;20069;-83
2021/06/09 04:01:35;;;;;;;23.10;15.65;;;;;;;;;;6259531;28;20060;-81
2021/06/09 04:04:38;;;;;;;21.42;15.50;;;;;;;;;;6257255;28;20045;-82
2021/06/09 04:07:43;;;;;;;21.80;15.35;;;;;;;;;;6274938;28;20142;-82
2021/06/09 04:10:47;;;;;;;23.35;15.27;;;;;;;;;;6268840;28;20041;-81
2021/06/09 04:13:50;;;;;;;23.88;16.50;;;;;;;;;;6234269;28;20052;-81
2021/06/09 04:16:52;;;;;;;;;;;;;;;;;;6256564;28;20037;-82
2021/06/09 04:19:58;;;;;;;21.67;14.57;;;;;;;;;;6257383;28;19932;-81
2021/06/09 04:23:01;;;;;;;25.38;15.23;;;;;;;;;;6257401;28;20083;-81
2021/06/09 04:26:05;;;;;;;24.67;14.80;;;;;;;;;;6240804;28;20076;-81
2021/06/09 04:29:08;;;;;;;21.75;15.45;;;;;;;;;;6235481;28;20038;-81
2021/06/09 04:32:09;;;;;;;20.03;14.83;;;;;;;;;;6244556;28;20110;-83
2021/06/09 04:35:12;;;;;;;20.55;15.55;;;;;;;;;;6285122;28;20443;-82
2021/06/09 04:38:16;;;;;;;22.27;15.73;;;;;;;;;;6264054;28;20053;-81
2021/06/09 04:41:19;;;;;;;19.90;15.18;;;;;;;;;;6280663;28;20048;-82
2021/06/09 04:44:21;;;;;;;22.10;15.85;;;;;;;;;;6282558;28;20144;-82
2021/06/09 04:47:28;;;;;;;22.83;16.50;;;;;;;;;;6282902;28;20056;-81
2021/06/09 04:50:30;;;;;;;21.98;14.93;;;;;;;;;;6245902;28;20063;-82
2021/06/09 04:53:32;;;;;;;21.23;15.50;;;;;;;;;;6282679;28;20061;-82
2021/06/09 04:56:36;;;;;;;25.15;16.42;;;;;;;;;;6258149;28;20133;-82
2021/06/09 04:59:38;;;;;;;23.25;15.45;;;;;;;;;;6256601;28;20068;-82
2021/06/09 05:02:40;;;;;;;22.27;15.57;;;;;;;;;;6257278;28;20068;-82
2021/06/09 05:05:42;;;;;;;20.52;14.63;;;;;;;;;;6285171;28;20051;-81
2021/06/09 05:08:43;;;;;;;22.73;14.77;;;;;;;;;;6289142;28;20097;-81
2021/06/09 05:11:57;;;;;;;21.58;15.38;;;;;;;;;;6255982;28;20042;-81
2021/06/09 05:15:06;;;;;;;20.65;14.82;;;;;;;;;;6240370;28;20033;-80
2021/06/09 05:18:19;;;;;;;23.80;16.33;;;;;;;;;;6261692;28;20068;-81
2021/06/09 05:21:30;;;;;;;21.48;15.68;;;;;;;;;;6273909;28;20053;-82
2021/06/09 05:24:34;;;;;;;22.30;15.65;;;;;;;;;;6275511;28;20059;-81
2021/06/09 05:27:38;;;;;;;23.38;15.95;;;;;;;;;;6274537;28;20604;-80
2021/06/09 05:30:40;;;;;;;24.17;15.77;;;;;;;;;;6279708;28;20108;-82
2021/06/09 05:33:43;;;;;;;21.95;15.32;;;;;;;;;;6266193;28;20041;-82
2021/06/09 05:36:45;;;;;;;;;;;;;;;;;;6255839;28;20061;-81
2021/06/09 05:39:47;;;;;;;22.30;13.82;;;;;;;;;;6263119;28;19948;-82
2021/06/09 05:42:49;;;;;;;20.70;14.48;;;;;;;;;;6281178;28;20145;-83
2021/06/09 05:45:52;;;;;;;21.67;14.97;;;;;;;;;;6278945;28;20090;-83
2021/06/09 05:48:53;;;;;;;20.95;15.10;;;;;;;;;;6269867;28;20080;-82
2021/06/09 05:51:55;;;;;;;25.15;15.77;;;;;;;;;;6256306;28;20109;-82
2021/06/09 05:54:57;;;;;;;19.80;15.38;;;;;;;;;;6255599;28;20042;-82
2021/06/09 05:58:02;;;;;;;25.83;16.33;;;;;;;;;;6255627;28;20105;-82
2021/06/09 06:01:22;;;;;;;23.60;15.45;;;;;;;;;;6253496;28;20045;-82
2021/06/09 06:04:25;;;;;;;20.40;15.65;;;;;;;;;;6235858;28;20056;-82
2021/06/09 06:07:26;;;;;;;;;;;;;;;;;;6270978;28;20112;-82
2021/06/09 06:10:28;;;;;;;22.60;14.95;;;;;;;;;;6277421;28;19925;-83
2021/06/09 06:13:30;;;;;;;20.92;14.88;;;;;;;;;;6256844;28;20088;-82
2021/06/09 06:16:37;;;;;;;19.95;14.52;;;;;;;;;;6259393;28;20041;-82
2021/06/09 06:19:38;;;;;;;;;;;;;;;;;;6226888;28;20101;-82
2021/06/09 06:22:41;;;;;;;19.20;14.45;;;;;;;;;;6233357;28;19984;-82
2021/06/09 06:25:44;;;;;;;18.70;14.67;;;;;;;;;;6220694;28;20101;-82
2021/06/09 06:28:52;;;;;;;22.85;14.13;;;;;;;;;;6230977;28;20117;-82
2021/06/09 06:31:53;;;;;;;19.42;15.15;;;;;;;;;;6247257;28;20108;-82
2021/06/09 06:34:57;;;;;;;21.03;14.80;;;;;;;;;;6284851;28;20470;-83
2021/06/09 06:37:59;;;;;;;20.08;15.13;;;;;;;;;;6260856;28;20112;-84
2021/06/09 06:41:01;;;;;;;22.73;15.80;;;;;;;;;;6272070;28;20104;-84
2021/06/09 06:44:03;;;;;;;21.92;14.02;;;;;;;;;;6222173;28;20048;-84
2021/06/09 06:47:05;;;;;;;24.20;14.02;;;;;;;;;;6231400;28;20477;-83
2021/06/09 06:50:08;;;;;;;18.02;14.35;;;;;;;;;;6223338;28;20045;-83
2021/06/09 06:53:10;;;;;;;19.42;13.85;;;;;;;;;;6248434;28;20045;-83
2021/06/09 06:56:13;;;;;;;18.97;13.67;;;;;;;;;;6267570;28;20417;-84
2021/06/09 06:59:16;;;;;;;21.10;13.82;;;;;;;;;;6275321;28;20051;-84
2021/06/09 07:02:18;;;;;;;21.88;15.57;;;;;;;;;;6256522;28;20064;-84
2021/06/09 07:05:22;;;;;;;19.88;14.25;;;;;;;;;;6277254;28;20144;-84
2021/06/09 07:08:23;;;;;;;17.73;13.90;;;;;;;;;;6277892;28;20069;-84
2021/06/09 07:11:26;;;;;;;17.13;12.97;;;;;;;;;;6249753;28;20067;-84
2021/06/09 07:14:32;;;;;;;18.52;13.52;;;;;;;;;;6265982;28;20041;-85
2021/06/09 07:17:57;;;;;;;20.63;14.10;;;;;;;;;;6253540;28;20129;-85
2021/06/09 07:20:59;;;;;;;14.48;12.10;;;;;;;;;;6240535;28;20105;-84
2021/06/09 07:24:02;;;;;;;17.15;12.98;;;;;;;;;;6226597;28;20052;-84
2021/06/09 07:27:04;;;;;;;16.33;12.77;;;;;;;;;;6250354;28;20481;-83
2021/06/09 07:30:08;;;;;;;15.15;11.02;;;;;;;;;;6249673;28;20052;-83
2021/06/09 07:33:10;;;;;;;15.27;12.70;;;;;;;;;;6251582;28;20038;-85
2021/06/09 07:36:15;;;;;;;13.77;11.98;;;;;;;;;;6247422;28;20030;-84
2021/06/09 07:39:30;;;;;;;12.60;11.25;;;;;;;;;;6265377;28;20056;-84
2021/06/09 07:42:34;;;;;;;14.10;11.07;;;;;;;;;;6275839;28;20048;-84
2021/06/09 07:45:37;;;;;;;14.10;10.77;;;;;;;;;;6275099;28;20048;-84
2021/06/09 07:48:40;;;;;;;13.55;10.98;;;;;;;;;;6266777;28;20115;-84
2021/06/09 07:51:44;;;;;;;14.18;10.27;;;;;;;;;;6266191;28;20061;-84
2021/06/09 07:54:46;;;;;;;11.00;9.75;;;;;;;;;;6248171;28;20124;-84
2021/06/09 07:57:50;;;;;;;11.70;10.38;;;;;;;;;;6264462;28;20052;-84
2021/06/09 08:00:55;;;;;;;11.05;9.95;;;;;;;;;;6233777;28;20052;-84
2021/06/09 08:03:57;;;;;;;10.32;9.27;;;;;;;;;;6254543;28;20168;-84
2021/06/09 08:06:59;;;;;;;10.60;9.50;;;;;;;;;;6276659;28;20055;-83
2021/06/09 08:10:00;;;;;;;10.23;9.23;;;;;;;;;;6272700;28;20049;-80
2021/06/09 08:13:02;;;;;;;12.32;10.82;;;;;;;;;;6260412;28;20104;-78
2021/06/09 08:16:11;;;;;;;9.00;8.20;;;;;;;;;;6252469;28;20136;-78
2021/06/09 08:19:13;;;;;;;9.73;8.38;;;;;;;;;;6257309;28;20128;-78
2021/06/09 08:22:14;;;;;;;8.07;7.32;;;;;;;;;;6260872;28;20140;-80
2021/06/09 08:25:20;;;;;;;9.02;8.13;;;;;;;;;;6227661;28;20042;-80
2021/06/09 08:28:21;;;;;;;7.82;7.03;;;;;;;;;;6236480;28;20497;-79
2021/06/09 08:31:26;;;;;;;8.20;7.40;;;;;;;;;;6235200;28;20045;-80
2021/06/09 08:34:28;;;;;;;8.77;7.93;;;;;;;;;;6225638;28;20128;-80
2021/06/09 08:37:29;;;;;;;8.50;7.57;;;;;;;;;;6222193;28;20052;-80
2021/06/09 08:40:32;;;;;;;8.70;7.90;;;;;;;;;;6219206;28;20199;-81
2021/06/09 08:43:35;;;;;;;9.85;8.55;;;;;;;;;;6229261;28;20049;-79
2021/06/09 08:46:38;;;;;;;10.27;8.20;;;;;;;;;;6231364;28;20155;-80
2021/06/09 08:49:40;;;;;;;9.18;8.30;;;;;;;;;;6235140;28;20046;-80
2021/06/09 08:52:46;;;;;;;9.75;8.45;;;;;;;;;;6239922;28;20564;-83
2021/06/09 08:55:49;;;;;;;9.13;8.15;;;;;;;;;;6254009;28;20120;-81
2021/06/09 08:58:51;;;;;;;8.82;7.93;;;;;;;;;;6243382;28;20042;-81
2021/06/09 09:01:54;;;;;;;8.43;6.95;;;;;;;;;;6244251;28;20438;-80
2021/06/09 09:04:55;;;;;;;7.80;7.03;;;;;;;;;;6268395;28;20044;-81
2021/06/09 09:07:57;;;;;;;8.00;6.95;;;;;;;;;;6270175;28;20051;-81
2021/06/09 09:11:00;;;;;;;;;;;;;;;;;;6267181;28;20545;-81
2021/06/09 09:14:02;;;;;;;8.63;7.78;;;;;;;;;;6246428;28;20044;-79
2021/06/09 09:17:06;;;;;;;8.25;7.45;;;;;;;;;;6245081;28;20041;-80
2021/06/09 09:20:09;;;;;;;8.73;7.82;;;;;;;;;;6257495;28;20128;-80
2021/06/09 09:23:21;;;;;;;7.97;7.20;;;;;;;;;;6268744;28;20041;-80
2021/06/09 09:26:29;;;;;;;8.40;7.43;;;;;;;;;;6249098;28;20105;-80
2021/06/09 09:29:31;;;;;;;8.63;7.72;;;;;;;;;;6244128;28;20043;-80
2021/06/09 09:32:54;;;;;;;8.55;7.55;;;;;;;;;;6244779;28;20053;-80
2021/06/09 09:35:58;;;;;;;10.07;7.90;;;;;;;;;;6215558;28;20056;-81
2021/06/09 09:39:00;;;;;;;9.13;7.57;;;;;;;;;;6246054;28;20041;-80
2021/06/09 09:42:29;;;;;;;8.40;7.60;;;;;;;;;;6252591;28;20446;-81
2021/06/09 09:45:34;;;;;;;9.40;7.55;;;;;;;;;;6268162;28;20060;-80
2021/06/09 09:48:38;;;;;;;9.63;7.32;;;;;;;;;;6250749;28;20072;-80
2021/06/09 09:51:53;;;;;;;8.65;7.75;;;;;;;;;;6222157;28;20044;-80
2021/06/09 09:54:59;;;;;;;8.63;7.75;;;;;;;;;;6213135;28;20407;-80
2021/06/09 09:58:07;;;;;;;8.27;7.47;;;;;;;;;;6245402;28;20045;-80
2021/06/09 10:01:16;;;;;;;64.10;17.75;;;;;;;;;;6269545;28;20033;-80
2021/06/09 10:04:21;;;;;;;8.77;7.88;;;;;;;;;;6244610;28;20041;-77
2021/06/09 10:07:23;;;;;;;16.10;9.43;;;;;;;;;;6222979;28;20058;-76
2021/06/09 10:10:26;;;;;;;9.80;7.70;;;;;;;;;;6245336;28;20128;-77
2021/06/09 10:13:28;;;;;;;23.52;10.85;;;;;;;;;;6253322;28;20052;-82
2021/06/09 10:16:34;;;;;;;12.80;8.93;;;;;;;;;;6243216;28;20705;-78
2021/06/09 10:19:36;;;;;;;32.92;14.20;;;;;;;;;;6243036;28;20037;-79
2021/06/09 10:22:40;;;;;;;8.77;7.47;;;;;;;;;;6242984;28;20061;-79
2021/06/09 10:25:41;;;;;;;12.80;8.93;;;;;;;;;;6256785;28;20042;-80
2021/06/09 10:28:56;;;;;;;12.25;8.38;;;;;;;;;;6243369;28;20037;-80
2021/06/09 10:32:05;;;;;;;8.85;7.93;;;;;;;;;;6241402;28;20152;-79
2021/06/09 10:35:07;;;;;;;9.52;8.52;;;;;;;;;;6215413;28;20791;-79
2021/06/09 10:38:09;;;;;;;;;;;;;;;;;;6216547;28;20041;-80
2021/06/09 10:41:12;;;;;;;10.52;9.05;;;;;;;;;;6193522;28;19938;-77
2021/06/09 10:44:18;;;;;;;8.98;8.07;;;;;;;;;;6192146;28;20042;-79
2021/06/09 10:47:23;;;;;;;9.75;8.40;;;;;;;;;;6206021;28;20618;-80
2021/06/09 10:50:25;;;;;;;10.95;9.35;;;;;;;;;;6236119;28;20758;-79
2021/06/09 10:53:27;;;;;;;10.80;8.65;;;;;;;;;;6235317;28;20049;-78
2021/06/09 10:56:29;;;;;;;9.48;8.55;;;;;;;;;;6205089;28;20038;-82
2021/06/09 10:59:32;;;;;;;11.27;9.82;;;;;;;;;;6187084;28;20579;-78
2021/06/09 11:02:35;;;;;;;11.60;10.10;;;;;;;;;;6193109;28;20056;-77
2021/06/09 11:05:37;;;;;;;10.90;9.82;;;;;;;;;;6237734;28;20592;-78
2021/06/09 11:08:39;;;;;;;11.82;10.63;;;;;;;;;;6237645;28;20057;-77
2021/06/09 11:11:42;;;;;;;10.68;9.60;;;;;;;;;;6228118;28;20049;-78
2021/06/09 11:14:48;;;;;;;;;;;;;;;;;;6214075;28;20057;-77
2021/06/09 11:17:53;;;;;;;11.00;9.88;;;;;;;;;;6213439;28;20356;-76
2021/06/09 11:20:59;;;;;;;10.73;9.63;;;;;;;;;;6211620;28;20046;-78
2021/06/09 11:24:11;;;;;;;10.52;9.45;;;;;;;;;;6213421;28;20060;-78
2021/06/09 11:27:29;;;;;;;9.80;8.88;;;;;;;;;;6237324;28;20113;-77
2021/06/09 11:30:30;;;;;;;9.40;8.50;;;;;;;;;;6239460;28;20042;-78
2021/06/09 11:33:50;;;;;;;9.80;8.90;;;;;;;;;;6260101;28;20417;-78
2021/06/09 11:37:08;;;;;;;10.70;8.27;;;;;;;;;;6262963;28;20524;-79
2021/06/09 11:40:10;;;;;;;9.88;8.88;;;;;;;;;;6262413;28;20116;-78
2021/06/09 11:43:18;;;;;;;9.10;8.20;;;;;;;;;;6264305;28;20055;-77
2021/06/09 11:46:29;;;;;;;9.75;8.77;;;;;;;;;;6255770;28;20056;-77
2021/06/09 11:49:31;;;;;;;8.68;7.90;;;;;;;;;;6245503;28;20194;-78
2021/06/09 11:53:12;;;;;;;8.90;8.10;;;;;;;;;;6268154;28;20122;-78
2021/06/09 11:56:29;;;;;;;8.75;7.93;;;;;;;;;;6246876;28;20049;-78
2021/06/09 11:59:33;;;;;;;8.73;7.93;;;;;;;;;;6242519;28;20052;-79
2021/06/09 12:02:35;;;;;;;9.40;8.00;;;;;;;;;;6245877;28;20049;-79
2021/06/09 12:05:37;;;;;;;9.32;8.48;;;;;;;;;;6258700;28;20037;-78
2021/06/09 12:08:39;;;;;;;8.63;7.72;;;;;;;;;;6269842;28;20044;-77
2021/06/09 12:11:44;;;;;;;9.15;8.20;;;;;;;;;;6260273;28;20037;-79
2021/06/09 12:14:50;;;;;;;8.70;7.88;;;;;;;;;;6259485;28;20524;-78
2021/06/09 12:17:52;;;;;;;8.85;7.97;;;;;;;;;;6244166;28;20044;-79
2021/06/09 12:21:10;;;;;;;8.57;7.78;;;;;;;;;;6243753;28;20292;-79
2021/06/09 12:24:15;;;;;;;7.78;7.07;;;;;;;;;;6231252;28;20064;-79
2021/06/09 12:27:17;;;;;;;7.90;7.20;;;;;;;;;;6232765;28;20053;-78
2021/06/09 12:30:21;;;;;;;8.02;7.22;;;;;;;;;;6240741;28;20418;-79
2021/06/09 12:33:36;;;;;;;7.63;6.93;;;;;;;;;;6228676;28;20472;-78
2021/06/09 12:36:38;;;;;;;7.57;6.88;;;;;;;;;;6218873;28;20040;-79
2021/06/09 12:39:40;;;;;;;8.23;7.43;;;;;;;;;;6223117;28;20042;-79
2021/06/09 12:43:09;;;;;;;8.88;7.97;;;;;;;;;;6218625;28;20406;-79
2021/06/09 12:46:13;;;;;;;8.65;7.85;;;;;;;;;;6170050;28;20053;-80
2021/06/09 12:49:24;;;;;;;8.30;7.50;;;;;;;;;;6245954;28;20047;-83
2021/06/09 12:52:31;;;;;;;8.32;7.60;;;;;;;;;;6249915;28;20052;-83
2021/06/09 12:55:35;;;;;;;8.07;7.38;;;;;;;;;;6276261;28;20049;-82
2021/06/09 12:58:38;;;;;;;8.07;7.28;;;;;;;;;;6268080;28;20586;-82
2021/06/09 13:01:43;;;;;;;8.35;7.55;;;;;;;;;;6251273;28;20049;-83
2021/06/09 13:04:44;;;;;;;7.93;7.22;;;;;;;;;;6250848;28;20045;-83
2021/06/09 13:07:46;;;;;;;7.63;7.03;;;;;;;;;;6253163;28;20205;-83
2021/06/09 13:10:50;;;;;;;7.45;6.85;;;;;;;;;;6267531;28;20037;-83
2021/06/09 13:13:57;;;;;;;7.78;6.80;;;;;;;;;;6249675;28;20038;-84
2021/06/09 13:17:08;;;;;;;7.05;6.55;;;;;;;;;;6239219;28;20421;-82
2021/06/09 13:20:12;;;;;;;7.20;6.53;;;;;;;;;;6267066;28;20041;-83
2021/06/09 13:23:14;;;;;;;7.57;6.93;;;;;;;;;;6243258;28;20116;-81
2021/06/09 13:26:18;;;;;;;7.65;7.05;;;;;;;;;;6238927;28;20045;-81
2021/06/09 13:29:24;;;;;;;8.05;7.35;;;;;;;;;;6250280;28;20183;-82
2021/06/09 13:32:28;;;;;;;8.63;7.35;;;;;;;;;;6227134;28;20052;-81
2021/06/09 13:35:30;;;;;;;7.60;6.90;;;;;;;;;;6254658;28;20041;-81
2021/06/09 13:38:36;;;;;;;7.47;6.65;;;;;;;;;;6265239;28;20048;-81
2021/06/09 13:41:42;;;;;;;8.15;7.35;;;;;;;;;;6242620;28;20553;-81
2021/06/09 13:44:46;;;;;;;7.93;7.22;;;;;;;;;;6219934;28;20049;-81
2021/06/09 13:47:47;;;;;;;7.90;7.22;;;;;;;;;;6254864;28;20055;-81
2021/06/09 13:51:08;;;;;;;7.93;7.13;;;;;;;;;;6240626;28;20522;-81
2021/06/09 13:54:09;;;;;;;7.90;7.18;;;;;;;;;;6240478;28;20053;-81
2021/06/09 13:57:12;;;;;;;;;;;;;;;;;;6239634;28;20065;-82
2021/06/09 14:00:19;;;;;;;8.23;7.53;;;;;;;;;;6217957;28;19929;-82
2021/06/09 14:03:26;;;;;;;7.68;7.05;;;;;;;;;;6239338;28;20050;-82
2021/06/09 14:06:28;;;;;;;8.50;7.63;;;;;;;;;;6220598;28;20042;-83
2021/06/09 14:09:30;;;;;;;8.60;7.90;;;;;;;;;;6215251;28;20042;-82
2021/06/09 14:12:46;;;;;;;8.27;7.47;;;;;;;;;;6261181;28;20052;-83
2021/06/09 14:15:59;;;;;;;8.00;7.30;;;;;;;;;;6240765;28;20048;-83
2021/06/09 14:19:05;;;;;;;;;;;;;;;;;;6239212;28;20128;-82
2021/06/09 14:22:20;;;;;;;8.63;7.93;;;;;;;;;;6242250;28;19921;-81
2021/06/09 14:25:26;;;;;;;7.93;7.22;;;;;;;;;;6238173;28;20056;-84
2021/06/09 14:28:32;;;;;;;8.40;7.60;;;;;;;;;;6253524;28;20037;-81
2021/06/09 14:31:34;;;;;;;10.05;7.65;;;;;;;;;;6260747;28;20041;-83
2021/06/09 14:34:40;;;;;;;8.32;7.63;;;;;;;;;;6254575;28;20037;-83
2021/06/09 14:37:43;;;;;;;8.25;7.43;;;;;;;;;;6237344;28;20104;-82
2021/06/09 14:40:46;;;;;;;7.88;7.10;;;;;;;;;;6236177;28;20045;-82
2021/06/09 14:44:20;;;;;;;8.05;6.05;;;;;;;;;;6236960;28;20053;-82
2021/06/09 14:47:40;;;;;;;6.97;6.32;;;;;;;;;;6250896;28;20557;-81
2021/06/09 14:50:43;;;;;;;7.55;6.50;;;;;;;;;;6260680;28;20052;-82
2021/06/09 14:53:47;;;;;;;7.25;6.13;;;;;;;;;;6261121;28;20048;-81
2021/06/09 14:56:49;;;;;;;7.28;6.65;;;;;;;;;;6256353;28;20049;-82
2021/06/09 15:00:00;;;;;;;6.88;6.38;;;;;;;;;;6257998;28;20042;-82
2021/06/09 15:03:02;;;;;;;7.50;6.85;;;;;;;;;;6226130;28;20046;-81
2021/06/09 15:06:05;;;;;;;6.47;5.88;;;;;;;;;;6246780;28;20040;-79
2021/06/09 15:09:07;;;;;;;6.57;5.97;;;;;;;;;;6257449;28;20040;-80
2021/06/09 15:12:11;;;;;;;6.65;5.90;;;;;;;;;;6236292;28;20048;-80
2021/06/09 15:15:13;;;;;;;6.22;5.72;;;;;;;;;;6246105;28;20045;-83
2021/06/09 15:18:14;;;;;;;6.38;5.88;;;;;;;;;;6260448;28;20056;-82
2021/06/09 15:21:16;;;;;;;6.10;5.60;;;;;;;;;;6241458;28;20049;-83
2021/06/09 15:24:18;;;;;;;6.13;5.60;;;;;;;;;;6238180;28;20049;-85
2021/06/09 15:27:20;;;;;;;6.88;6.15;;;;;;;;;;6244223;28;20046;-86
2021/06/09 15:30:22;;;;;;;7.30;5.70;;;;;;;;;;6244844;28;20072;-83
2021/06/09 15:33:24;;;;;;;6.05;5.55;;;;;;;;;;6245338;28;20429;-81
2021/06/09 15:36:26;;;;;;;6.47;5.88;;;;;;;;;;6260537;28;20053;-82
2021/06/09 15:39:27;;;;;;;6.30;5.50;;;;;;;;;;6246032;28;20457;-83
2021/06/09 15:42:29;;;;;;;6.05;5.50;;;;;;;;;;6260475;28;20068;-81
2021/06/09 15:45:30;;;;;;;5.47;4.97;;;;;;;;;;6244816;28;20346;-83
2021/06/09 15:48:32;;;;;;;6.05;5.47;;;;;;;;;;6261202;28;20045;-82
2021/06/09 15:51:34;;;;;;;6.38;5.85;;;;;;;;;;6244992;28;20045;-83
2021/06/09 15:54:38;;;;;;;6.50;5.80;;;;;;;;;;6260465;28;20044;-83
2021/06/09 15:57:41;;;;;;;6.47;5.45;;;;;;;;;;6260825;28;20047;-84
2021/06/09 16:00:43;;;;;;;6.00;5.40;;;;;;;;;;6247924;28;20041;-81
2021/06/09 16:03:45;;;;;;;6.20;5.70;;;;;;;;;;6260588;28;20044;-85
2021/06/09 16:06:48;;;;;;;6.50;5.90;;;;;;;;;;6250595;28;20068;-84
2021/06/09 16:09:50;;;;;;;6.28;5.68;;;;;;;;;;6245460;28;20399;-82
2021/06/09 16:12:52;;;;;;;6.30;5.70;;;;;;;;;;6234320;28;20140;-85
2021/06/09 16:15:56;;;;;;;6.18;5.68;;;;;;;;;;6242452;28;20448;-82
2021/06/09 16:18:58;;;;;;;6.75;6.15;;;;;;;;;;6244570;28;20146;-84
2021/06/09 16:21:59;;;;;;;7.95;6.68;;;;;;;;;;6241036;28;20053;-82
2021/06/09 16:25:02;;;;;;;8.13;7.18;;;;;;;;;;6258398;28;20179;-83
2021/06/09 16:28:04;;;;;;;8.85;7.10;;;;;;;;;;6240076;28;20068;-81
2021/06/09 16:31:06;;;;;;;8.27;7.50;;;;;;;;;;6241789;28;20104;-83
2021/06/09 16:34:07;;;;;;;7.70;7.03;;;;;;;;;;6242486;28;20037;-83
2021/06/09 16:37:09;;;;;;;7.45;6.72;;;;;;;;;;6257683;28;20045;-85
2021/06/09 16:40:17;;;;;;;8.80;8.10;;;;;;;;;;6233504;28;20123;-84
2021/06/09 16:43:19;;;;;;;9.38;8.40;;;;;;;;;;6238128;28;20075;-84
2021/06/09 16:46:20;;;;;;;;;;;;;;;;;;6255251;28;20734;-82
2021/06/09 16:49:22;;;;;;;9.75;8.85;;;;;;;;;;6258401;28;19932;-82
2021/06/09 16:52:24;;;;;;;10.57;9.57;;;;;;;;;;6249662;28;20045;-82
2021/06/09 16:55:30;;;;;;;9.93;9.13;;;;;;;;;;6245657;28;20062;-83
2021/06/09 17:01:55;;;;;;;10.77;9.68;;;;;;;;;;6266636;28;20387;-85
2021/06/09 17:04:57;;;;;;;11.32;10.23;;;;;;;;;;6266296;28;20065;-82
2021/06/09 17:07:58;;;;;;;10.83;9.70;;;;;;;;;;6231033;28;20108;-83
2021/06/09 17:11:00;;;;;;;11.00;10.00;;;;;;;;;;6241147;28;20468;-86
2021/06/09 17:14:02;;;;;;;11.20;10.02;;;;;;;;;;6240305;28;20053;-84
2021/06/09 17:17:05;;;;;;;;;;;;;;;;;;6238637;28;20406;-86
2021/06/09 17:20:08;;;;;;;11.07;9.97;;;;;;;;;;6256043;28;20018;-84
2021/06/09 17:23:12;;;;;;;10.20;9.20;;;;;;;;;;6241725;28;20542;-82
2021/06/09 17:26:13;;;;;;;9.55;8.65;;;;;;;;;;6220686;28;20128;-85
2021/06/09 17:29:15;;;;;;;9.77;8.88;;;;;;;;;;6243240;28;20068;-87
2021/06/09 17:32:18;;;;;;;10.40;9.38;;;;;;;;;;6230008;28;20049;-83
2021/06/09 17:35:19;;;;;;;;;;;;;;;;;;6237126;28;20049;-84
2021/06/09 17:38:22;;;;;;;9.98;8.98;;;;;;;;;;6239284;28;20006;-83
2021/06/09 17:41:24;;;;;;;9.95;9.13;;;;;;;;;;6226339;28;20053;-82
2021/06/09 17:44:26;;;;;;;10.00;9.00;;;;;;;;;;6234551;28;20132;-83
2021/06/09 17:47:27;;;;;;;9.50;8.63;;;;;;;;;;6233400;28;20441;-82
2021/06/09 17:50:29;;;;;;;11.10;9.87;;;;;;;;;;6223281;28;20099;-81
2021/06/09 17:53:31;;;;;;;10.75;9.73;;;;;;;;;;6264480;28;20061;-83
2021/06/09 17:56:34;;;;;;;11.27;10.17;;;;;;;;;;6277073;28;20119;-81
2021/06/09 17:59:37;;;;;;;10.65;9.75;;;;;;;;;;6248256;28;20281;-84
2021/06/09 18:05:50;;;;;;;10.68;9.77;;;;;;;;;;6243292;28;20045;-82
2021/06/09 18:08:54;;;;;;;9.73;8.83;;;;;;;;;;6239809;28;20112;-84
2021/06/09 18:11:56;;;;;;;9.52;8.57;;;;;;;;;;6266460;28;20041;-81
2021/06/09 18:14:58;;;;;;;10.52;9.52;;;;;;;;;;6232281;28;20057;-82
2021/06/09 18:18:00;;;;;;;10.98;9.73;;;;;;;;;;6234358;28;20045;-83
2021/06/09 18:21:02;;;;;;;10.88;9.88;;;;;;;;;;6239933;28;20037;-83